Catàleg de serveis del Meteocat
Campanya meteocatpedra

Dades de l'estació automàtica Vilanova de Meià

?
?
Resum diari 22:30 TU
Dades diàries de l'estació meteorològica
Temperatura mitjana 6.2 °C
Temperatura màxima 12.6 °C 15:06 TU
Temperatura mínima 2.2 °C 2:23 TU
Humitat relativa mitjana 85%
Precipitació acumulada 0.0 mm
Ratxa màxima del vent (10 m) 22.0 km/h - 210º 15:07 TU
Pressió atmosfèrica mitjana 1007.4 hPa

El tram horari està expressat en Temps Universal (TU). Cal sumar una hora en horari d'hivern i dues en horari d'estiu per passar a l'hora oficial.

Vilanova de Meià

Metadades estació meteorol´gica
Municipi Vilanova de Meià
Comarca Noguera
Altitud 594 m
Data alta 01.04.1996
Estat actual Operativa
Dades de període
Període
TU
TM
°C
TX
°C
TN
°C
HRM
%
PPT
mm
VVM (10 m)
km/h
DVM (10 m)
graus
VVX (10 m)
km/h
PM
hPa
00:00 - 00:30 2.7 3.3 2.3 92 0.0 1.1 19 4.7 1007.5
00:30 - 01:00 2.8 3.2 2.4 93 0.0 2.2 25 4.3 1006.9
01:00 - 01:30 2.8 3.2 2.5 93 0.0 1.8 36 4.3 1006.8
01:30 - 02:00 2.6 2.8 2.5 92 0.0 2.9 25 7.2 1006.7
02:00 - 02:30 2.6 2.8 2.2 91 0.0 1.8 29 5.8 1006.4
02:30 - 03:00 3.1 3.5 2.7 91 0.0 2.2 71 6.8 1005.9
03:00 - 03:30 3.3 3.6 2.9 92 0.0 1.4 18 4.3 1005.7
03:30 - 04:00 2.7 3.0 2.5 95 0.0 1.8 55 4.3 1005.9
04:00 - 04:30 3.3 3.6 3.0 94 0.0 1.8 22 4.7 1005.7
04:30 - 05:00 3.3 3.6 3.2 95 0.0 1.4 9 4.0 1005.8
05:00 - 05:30 3.7 3.9 3.4 94 0.0 0.7 28 2.9 1005.4
05:30 - 06:00 3.7 3.8 3.6 95 0.0 0.7 140 2.5 1005.4
06:00 - 06:30 3.6 3.7 3.5 96 0.0 0.4 19 2.9 1005.7
06:30 - 07:00 3.9 4.3 3.5 94 0.0 1.1 14 4.3 1006.1
07:00 - 07:30 4.3 4.6 4.1 93 0.0 0.4 23 2.5 1006.5
07:30 - 08:00 4.8 5.2 4.5 90 0.0 1.4 21 4.7 1006.6
08:00 - 08:30 6.1 7.3 5.1 87 0.0 0.7 159 4.3 1006.6
08:30 - 09:00 6.5 7.1 6.2 84 0.0 2.2 227 4.7 1007.1
09:00 - 09:30 6.7 7.1 6.5 81 0.0 1.1 52 4.0 1007.8
09:30 - 10:00 7.6 7.9 7.2 75 0.0 1.4 186 6.5 1007.8
10:00 - 10:30 7.9 8.4 7.7 73 0.0 2.2 216 6.8 1007.9
10:30 - 11:00 8.7 9.1 8.4 70 0.0 2.5 192 5.8 1007.7
11:00 - 11:30 9.4 10.2 8.8 66 0.0 2.5 216 7.2 1007.6
11:30 - 12:00 10.4 11.1 10.0 61 0.0 4.7 214 10.4 1007.2
12:00 - 12:30 11.2 11.6 10.8 62 0.0 5.8 179 13.7 1006.9
12:30 - 13:00 11.5 11.7 11.3 61 0.0 6.1 192 12.2 1006.6
13:00 - 13:30 11.5 11.6 11.3 61 0.0 7.6 187 16.2 1006.4
13:30 - 14:00 11.2 11.6 10.8 65 0.0 8.3 175 17.3 1006.4
14:00 - 14:30 11.3 11.6 10.5 67 0.0 8.6 178 18.0 1006.4
14:30 - 15:00 11.0 11.9 10.4 69 0.0 7.6 184 19.4 1006.8
15:00 - 15:30 12.2 12.6 11.9 65 0.0 8.3 206 22.0 1006.7
15:30 - 16:00 10.7 12.2 9.5 74 0.0 7.2 194 17.6 1007.2
16:00 - 16:30 9.0 9.6 8.5 82 0.0 4.3 160 10.1 1007.8
16:30 - 17:00 7.7 8.4 7.1 87 0.0 2.5 28 7.2 1008.2
17:00 - 17:30 6.7 7.1 6.2 89 0.0 1.8 36 6.8 1008.9
17:30 - 18:00 5.7 6.2 5.4 92 0.0 1.4 33 4.0 1009.7
18:00 - 18:30 5.7 6.2 5.4 91 0.0 4.0 33 10.1 1009.8
18:30 - 19:00 5.6 5.9 5.2 94 0.0 4.3 12 11.5 1009.6
19:00 - 19:30 5.9 6.3 5.2 93 0.0 2.2 13 7.2 1009.9
19:30 - 20:00 5.3 5.7 5.1 93 0.0 2.9 31 10.1 1009.9
20:00 - 20:30 5.2 5.5 4.8 92 0.0 2.5 22 6.5 1009.5
20:30 - 21:00 4.4 4.8 4.1 94 0.0 1.8 25 5.8 1009.8
21:00 - 21:30 4.8 5.2 4.5 91 0.0 2.2 21 6.5 1009.3
21:30 - 22:00 4.5 4.8 4.0 93 0.0 1.8 333 5.8 1009.4
22:00 - 22:30 4.3 4.5 4.0 96 0.0 1.8 296 7.6 1008.9
22:30 - 23:00 4.7 5.0 4.5 97 0.0 1.4 12 5.8 1008.3

Les dades en taronja només han passat un control de qualitat automàtic. Resta pendent la seva validació definitiva.